Terminal Aerodrome Forecast
Issued by NWS

Home | Current Version | Previous Version | Text Only | Print | Product List | Glossary On
Versions: 1 2 3 4 5 6 7 8 9 10 11 12 13 14 15 16 17 18 19 20 21 22 23
000
FTUS42 KILM 311100
TAFCRE
TAF
KCRE 311120Z 3112/0112 03006KT P6SM SCT040 BKN100
     FM311400 01012KT P6SM SCT025 BKN040
     FM311900 36006KT P6SM SCT040
     FM010800 VRB04KT P6SM VCSH SCT035 BKN080
     FM011100 30010G18KT P6SM VCSH SCT035 BKN150=

USA.gov is the U.S. government's official web portal to all federal, state and local government web resources and services.